createdAt,value
2018-12-25T00:03:28.834Z,77.66
2018-12-25T00:08:33.689Z,77.58
2018-12-25T00:13:38.568Z,78.00
2018-12-25T00:18:43.471Z,77.62
2018-12-25T00:23:48.329Z,77.87
2018-12-25T00:28:53.273Z,77.82
2018-12-25T00:33:58.195Z,77.97
2018-12-25T00:39:04.617Z,78.21
2018-12-25T00:44:09.883Z,77.86
2018-12-25T00:49:15.151Z,77.99
2018-12-25T00:54:20.213Z,78.34
2018-12-25T00:59:25.349Z,78.33
2018-12-25T01:04:30.315Z,78.43
2018-12-25T01:09:35.184Z,78.62
2018-12-25T01:14:41.225Z,79.01
2018-12-25T01:19:46.102Z,79.48
2018-12-25T01:24:50.943Z,79.88
2018-12-25T01:29:55.832Z,80.73
2018-12-25T01:35:00.734Z,80.73
2018-12-25T01:40:06.564Z,81.37
2018-12-25T01:45:11.515Z,81.61
2018-12-25T01:50:16.428Z,81.66
2018-12-25T01:55:21.365Z,81.79
2018-12-25T02:00:26.364Z,82.44
2018-12-25T02:05:31.273Z,83.10
2018-12-25T02:10:36.126Z,83.84
2018-12-25T02:15:41.034Z,83.59
2018-12-25T02:20:45.900Z,84.68
2018-12-25T02:25:50.755Z,84.96
2018-12-25T02:30:55.673Z,85.03
2018-12-25T02:36:00.535Z,85.03
2018-12-25T02:41:05.420Z,84.50
2018-12-25T02:46:10.317Z,84.73
2018-12-25T02:51:15.262Z,85.28
2018-12-25T02:56:20.169Z,85.16
2018-12-25T03:01:25.113Z,84.77
2018-12-25T03:06:30.580Z,84.57
2018-12-25T03:11:35.425Z,84.15
2018-12-25T03:16:40.295Z,84.46
2018-12-25T03:21:45.190Z,84.27
2018-12-25T03:26:50.102Z,84.15
2018-12-25T03:31:54.989Z,84.14
2018-12-25T03:36:59.898Z,84.59
2018-12-25T03:42:04.800Z,84.60
2018-12-25T03:47:09.667Z,84.85
2018-12-25T03:52:14.530Z,85.41
2018-12-25T03:57:19.405Z,84.66
2018-12-25T04:02:24.287Z,84.61
2018-12-25T04:07:29.229Z,84.50
2018-12-25T04:12:34.110Z,84.56
2018-12-25T04:17:39.013Z,84.43
2018-12-25T04:22:43.862Z,84.44
2018-12-25T04:27:48.777Z,84.45
2018-12-25T04:32:53.742Z,84.40
2018-12-25T04:37:58.599Z,84.50
2018-12-25T04:43:03.449Z,84.48
2018-12-25T04:48:08.346Z,84.55
2018-12-25T04:53:13.255Z,84.67
2018-12-25T04:58:18.198Z,84.79
2018-12-25T05:03:23.269Z,84.39
2018-12-25T05:08:28.161Z,84.15
2018-12-25T05:13:32.997Z,84.34
2018-12-25T05:18:37.848Z,83.82
2018-12-25T05:23:42.753Z,83.63
2018-12-25T05:28:47.611Z,83.65
2018-12-25T05:33:52.517Z,83.17
2018-12-25T05:38:57.488Z,83.26
2018-12-25T05:44:02.371Z,83.06
2018-12-25T05:49:07.385Z,83.17
2018-12-25T05:54:12.283Z,83.10
2018-12-25T05:59:17.149Z,82.87
2018-12-25T06:04:22.118Z,82.56
2018-12-25T06:09:26.963Z,82.97
2018-12-25T06:14:31.852Z,82.44
2018-12-25T06:19:36.704Z,82.18
2018-12-25T06:24:41.600Z,81.94
2018-12-25T06:29:46.492Z,82.00
2018-12-25T06:34:51.399Z,81.91
2018-12-25T06:39:56.312Z,81.14
2018-12-25T06:45:01.254Z,81.11
2018-12-25T06:50:06.437Z,80.87
2018-12-25T06:55:11.373Z,80.41
2018-12-25T07:00:16.379Z,80.48
2018-12-25T07:05:21.252Z,80.09
2018-12-25T07:10:26.119Z,79.28
2018-12-25T07:15:33.244Z,78.56
2018-12-25T07:20:37.634Z,78.64
2018-12-25T07:25:42.535Z,78.21
2018-12-25T07:30:48.459Z,78.57
2018-12-25T07:35:53.298Z,78.80
2018-12-25T07:40:58.168Z,78.70
2018-12-25T07:46:03.078Z,78.35
2018-12-25T07:51:08.131Z,78.49
2018-12-25T07:56:13.004Z,77.96
2018-12-25T08:01:17.917Z,78.31
2018-12-25T08:06:22.852Z,77.92
2018-12-25T08:11:27.703Z,77.76
2018-12-25T08:16:32.660Z,78.20
2018-12-25T08:21:37.590Z,78.06
2018-12-25T08:26:42.518Z,78.58
2018-12-25T08:31:47.389Z,79.09
2018-12-25T08:36:52.303Z,79.26
2018-12-25T08:41:57.287Z,78.78
2018-12-25T08:47:03.813Z,78.55
2018-12-25T08:53:28.466Z,78.25
2018-12-25T08:58:32.001Z,78.68
2018-12-25T09:07:51.761Z,78.74
2018-12-25T09:14:00.279Z,78.46
2018-12-25T09:19:04.706Z,78.44
2018-12-25T09:24:09.122Z,78.86
2018-12-25T09:29:13.464Z,77.92
2018-12-25T09:34:17.852Z,76.76
2018-12-25T09:39:22.450Z,76.93
2018-12-25T09:44:26.807Z,77.04
2018-12-25T09:49:31.153Z,77.43
2018-12-25T09:54:35.569Z,77.41
2018-12-25T09:59:39.905Z,77.42
2018-12-25T10:04:44.253Z,77.29
2018-12-25T10:09:48.630Z,76.84
2018-12-25T10:14:53.004Z,77.52
2018-12-25T10:19:57.510Z,77.24
2018-12-25T10:25:01.851Z,77.73
2018-12-25T10:30:07.226Z,77.34
2018-12-25T10:35:11.572Z,77.12
2018-12-25T10:40:15.939Z,76.76
2018-12-25T10:45:21.049Z,76.95
2018-12-25T10:50:25.439Z,77.19
2018-12-25T10:55:30.752Z,77.29
2018-12-25T11:00:38.425Z,77.10
2018-12-25T11:05:42.856Z,77.17
2018-12-25T11:10:47.289Z,76.94
2018-12-25T11:15:51.627Z,76.55
2018-12-25T11:20:56.167Z,76.69
2018-12-25T11:26:00.484Z,77.38
2018-12-25T11:31:04.953Z,76.57
2018-12-25T11:36:09.319Z,76.10
2018-12-25T11:41:13.664Z,76.66
2018-12-25T11:46:18.503Z,76.33
2018-12-25T11:51:22.879Z,76.28
2018-12-25T11:56:27.234Z,77.45
2018-12-25T12:01:31.694Z,76.31
2018-12-25T12:06:36.161Z,76.64
2018-12-25T12:11:40.598Z,76.94
2018-12-25T12:16:45.031Z,76.78
2018-12-25T12:21:49.465Z,76.81
2018-12-25T12:26:53.847Z,77.23
2018-12-25T12:31:58.281Z,77.04
2018-12-25T12:37:02.632Z,77.51
2018-12-25T12:42:07.032Z,77.51
2018-12-25T12:47:11.386Z,77.81
2018-12-25T12:52:15.823Z,77.82
2018-12-25T12:57:20.408Z,78.19
2018-12-25T13:02:24.790Z,78.24
2018-12-25T13:07:29.251Z,78.49
2018-12-25T13:12:33.595Z,78.56
2018-12-25T13:17:38.050Z,79.46
2018-12-25T13:22:42.515Z,78.73
2018-12-25T13:27:46.893Z,78.81
2018-12-25T13:32:51.286Z,78.86
2018-12-25T13:37:55.667Z,78.88
2018-12-25T13:43:00.083Z,78.41
2018-12-25T13:48:04.438Z,78.48
2018-12-25T13:53:08.833Z,79.00
2018-12-25T13:58:13.180Z,78.42
2018-12-25T14:03:17.545Z,79.01
2018-12-25T14:08:21.933Z,80.58
2018-12-25T14:13:26.293Z,80.29
2018-12-25T14:18:30.635Z,80.05
2018-12-25T14:23:35.020Z,79.92
2018-12-25T14:28:39.410Z,79.87
2018-12-25T14:33:43.915Z,80.32
2018-12-25T14:38:48.263Z,80.38
2018-12-25T14:43:52.704Z,80.23
2018-12-25T14:48:57.061Z,80.70
2018-12-25T14:54:01.572Z,80.41
2018-12-25T14:59:05.918Z,81.04
2018-12-25T15:04:10.260Z,81.54
2018-12-25T15:09:14.597Z,81.81
2018-12-25T15:14:19.082Z,81.99
2018-12-25T15:19:23.491Z,81.66
2018-12-25T15:24:27.871Z,81.92
2018-12-25T15:29:32.296Z,81.06
2018-12-25T15:34:36.721Z,80.58
2018-12-25T15:39:41.130Z,80.34
2018-12-25T15:44:45.510Z,80.49
2018-12-25T15:49:49.881Z,80.40
2018-12-25T15:54:55.895Z,80.33
2018-12-25T16:00:00.308Z,79.69
2018-12-25T16:05:05.506Z,79.54
2018-12-25T16:10:09.986Z,79.42
2018-12-25T16:15:14.305Z,79.31
2018-12-25T16:20:18.752Z,79.05
2018-12-25T16:25:23.188Z,79.14
2018-12-25T16:30:28.648Z,78.87
2018-12-25T16:35:33.015Z,78.96
2018-12-25T16:40:37.343Z,78.50
2018-12-25T16:45:41.722Z,77.87
2018-12-25T16:50:46.056Z,77.91
2018-12-25T16:55:50.412Z,77.44
2018-12-25T17:00:55.367Z,77.23
2018-12-25T17:05:59.829Z,77.88
2018-12-25T17:11:04.267Z,76.91
2018-12-25T17:16:08.635Z,76.51
2018-12-25T17:21:13.088Z,77.13
2018-12-25T17:26:17.492Z,76.48
2018-12-25T17:31:21.838Z,76.62
2018-12-25T17:36:26.242Z,77.23
2018-12-25T17:41:30.635Z,76.17
2018-12-25T17:46:35.031Z,75.75
2018-12-25T17:51:39.396Z,75.36
2018-12-25T17:56:43.746Z,75.39
2018-12-25T18:01:48.096Z,74.79
2018-12-25T18:06:52.486Z,74.70
2018-12-25T18:11:56.830Z,74.21
2018-12-25T18:17:01.197Z,74.46
2018-12-25T18:22:05.597Z,73.87
2018-12-25T18:27:10.045Z,73.88
2018-12-25T18:32:14.416Z,74.52
2018-12-25T18:37:18.808Z,74.40
2018-12-25T18:42:23.470Z,74.25
2018-12-25T18:47:28.036Z,74.41
2018-12-25T18:52:32.396Z,74.15
2018-12-25T18:57:36.734Z,74.43
2018-12-25T19:02:41.104Z,74.03
2018-12-25T19:07:45.434Z,74.01
2018-12-25T19:12:49.861Z,73.96
2018-12-25T19:17:55.307Z,73.07
2018-12-25T19:22:59.655Z,72.95
2018-12-25T19:28:04.039Z,72.88
2018-12-25T19:33:09.459Z,72.90
2018-12-25T19:38:13.852Z,72.95
2018-12-25T19:43:18.199Z,72.33
2018-12-25T19:48:22.630Z,72.02
2018-12-25T19:53:26.971Z,72.18
2018-12-25T19:58:31.371Z,72.11
2018-12-25T20:03:38.326Z,72.25
2018-12-25T20:08:48.428Z,72.45
2018-12-25T20:14:10.712Z,72.65
2018-12-25T20:19:18.264Z,72.81
2018-12-25T20:24:28.678Z,72.55
2018-12-25T20:29:42.016Z,72.63
2018-12-25T20:35:08.582Z,72.29
2018-12-25T20:40:41.798Z,72.04
2018-12-25T20:46:13.157Z,72.50
2018-12-25T20:51:32.851Z,72.50
2018-12-25T20:56:40.388Z,72.24
2018-12-25T21:02:19.890Z,71.73
2018-12-25T21:07:45.668Z,71.64
2018-12-25T21:13:12.709Z,71.59
2018-12-25T21:18:32.299Z,71.14
2018-12-25T21:24:13.290Z,71.18
2018-12-25T21:29:17.656Z,71.17
2018-12-25T21:34:22.085Z,71.66
2018-12-25T21:39:26.476Z,71.76
2018-12-25T21:44:30.876Z,71.57
2018-12-25T21:49:35.219Z,71.82
2018-12-25T21:54:40.026Z,71.95
2018-12-25T21:59:44.598Z,71.92
2018-12-25T22:04:48.921Z,71.77
2018-12-25T22:09:53.674Z,72.16
2018-12-25T22:14:58.024Z,72.03
2018-12-25T22:20:07.150Z,71.90
2018-12-25T22:25:11.490Z,72.12
2018-12-25T22:30:15.852Z,72.19
2018-12-25T22:35:20.241Z,72.45
2018-12-25T22:40:24.623Z,72.17
2018-12-25T22:45:29.072Z,73.06
2018-12-25T22:50:33.589Z,72.71
2018-12-25T22:55:38.041Z,72.65
2018-12-25T23:00:44.997Z,72.45
2018-12-25T23:05:56.495Z,72.68
2018-12-25T23:11:00.864Z,72.62
2018-12-25T23:16:05.220Z,72.24
2018-12-25T23:21:09.608Z,72.24
2018-12-25T23:26:14.074Z,72.11
2018-12-25T23:31:19.149Z,71.96
2018-12-25T23:36:23.505Z,72.13
2018-12-25T23:41:28.064Z,71.57
2018-12-25T23:46:32.421Z,71.83
2018-12-25T23:51:36.758Z,71.63
2018-12-25T23:56:41.121Z,71.43
